sensor_id;sensor_type;location;lat;lon;timestamp;pressure;altitude;pressure_sealevel;temperature;humidity
20987;BME280;10652;50.306;8.570;2023-02-28T00:00:57;99016.09;;;-1.61;78.33
20987;BME280;10652;50.306;8.570;2023-02-28T00:04:59;99019.59;;;-1.57;78.19
20987;BME280;10652;50.306;8.570;2023-02-28T00:09:02;99007.53;;;-1.58;77.98
20987;BME280;10652;50.306;8.570;2023-02-28T00:13:05;99011.81;;;-1.60;78.03
20987;BME280;10652;50.306;8.570;2023-02-28T00:17:08;99014.28;;;-1.66;78.40
20987;BME280;10652;50.306;8.570;2023-02-28T00:21:10;99007.28;;;-1.75;78.79
20987;BME280;10652;50.306;8.570;2023-02-28T00:25:15;99018.34;;;-1.80;80.88
20987;BME280;10652;50.306;8.570;2023-02-28T00:29:17;99004.53;;;-1.84;81.69
20987;BME280;10652;50.306;8.570;2023-02-28T00:33:19;99010.44;;;-1.89;82.71
20987;BME280;10652;50.306;8.570;2023-02-28T00:37:22;99002.59;;;-1.95;84.93
20987;BME280;10652;50.306;8.570;2023-02-28T00:41:24;99002.47;;;-2.03;88.62
20987;BME280;10652;50.306;8.570;2023-02-28T00:45:26;99006.78;;;-2.02;88.13
20987;BME280;10652;50.306;8.570;2023-02-28T00:49:28;99008.38;;;-2.09;88.58
20987;BME280;10652;50.306;8.570;2023-02-28T00:53:30;99010.03;;;-2.14;88.86
20987;BME280;10652;50.306;8.570;2023-02-28T00:57:34;99013.34;;;-2.19;88.24
20987;BME280;10652;50.306;8.570;2023-02-28T01:01:36;99009.78;;;-2.26;89.72
20987;BME280;10652;50.306;8.570;2023-02-28T01:05:38;99011.34;;;-2.34;89.45
20987;BME280;10652;50.306;8.570;2023-02-28T01:09:41;99015.38;;;-2.45;89.61
20987;BME280;10652;50.306;8.570;2023-02-28T01:13:44;99013.59;;;-2.51;90.39
20987;BME280;10652;50.306;8.570;2023-02-28T01:17:47;99003.94;;;-2.61;91.00
20987;BME280;10652;50.306;8.570;2023-02-28T01:21:49;99006.31;;;-2.70;92.31
20987;BME280;10652;50.306;8.570;2023-02-28T01:25:51;99002.72;;;-2.78;92.47
20987;BME280;10652;50.306;8.570;2023-02-28T01:29:53;99011.88;;;-2.91;93.02
20987;BME280;10652;50.306;8.570;2023-02-28T01:33:55;99003.13;;;-3.00;93.70
20987;BME280;10652;50.306;8.570;2023-02-28T01:37:57;99002.16;;;-3.04;93.16
20987;BME280;10652;50.306;8.570;2023-02-28T01:42:13;98997.72;;;-3.11;94.03
20987;BME280;10652;50.306;8.570;2023-02-28T01:46:16;99000.97;;;-3.18;93.97
20987;BME280;10652;50.306;8.570;2023-02-28T01:50:21;98994.03;;;-3.23;94.63
20987;BME280;10652;50.306;8.570;2023-02-28T01:54:27;98991.19;;;-3.34;95.47
20987;BME280;10652;50.306;8.570;2023-02-28T01:58:30;98993.66;;;-3.39;95.84
20987;BME280;10652;50.306;8.570;2023-02-28T02:02:32;98984.94;;;-3.45;96.28
20987;BME280;10652;50.306;8.570;2023-02-28T02:06:40;98991.69;;;-3.50;97.59
20987;BME280;10652;50.306;8.570;2023-02-28T02:10:56;98985.47;;;-3.58;97.95
20987;BME280;10652;50.306;8.570;2023-02-28T02:32:47;98982.44;;;-3.78;100.00
20987;BME280;10652;50.306;8.570;2023-02-28T02:37:07;98977.22;;;-3.83;100.00
20987;BME280;10652;50.306;8.570;2023-02-28T02:41:17;98983.16;;;-3.84;100.00
20987;BME280;10652;50.306;8.570;2023-02-28T02:45:31;98971.84;;;-3.92;100.00
20987;BME280;10652;50.306;8.570;2023-02-28T02:49:41;98976.00;;;-3.97;100.00
20987;BME280;10652;50.306;8.570;2023-02-28T02:53:59;98983.59;;;-4.00;100.00
20987;BME280;10652;50.306;8.570;2023-02-28T02:58:06;98981.78;;;-4.04;100.00
20987;BME280;10652;50.306;8.570;2023-02-28T03:02:12;98984.41;;;-4.02;100.00
20987;BME280;10652;50.306;8.570;2023-02-28T03:06:16;98985.28;;;-4.02;100.00
20987;BME280;10652;50.306;8.570;2023-02-28T03:10:39;98985.19;;;-4.05;100.00
20987;BME280;10652;50.306;8.570;2023-02-28T03:14:46;98986.03;;;-4.06;100.00
20987;BME280;10652;50.306;8.570;2023-02-28T03:19:33;98984.22;;;-4.10;100.00
20987;BME280;10652;50.306;8.570;2023-02-28T03:24:08;98985.84;;;-4.12;100.00
20987;BME280;10652;50.306;8.570;2023-02-28T03:28:18;98982.53;;;-4.08;100.00
20987;BME280;10652;50.306;8.570;2023-02-28T03:32:34;98980.84;;;-4.07;100.00
20987;BME280;10652;50.306;8.570;2023-02-28T03:36:41;98974.72;;;-4.14;100.00
20987;BME280;10652;50.306;8.570;2023-02-28T03:40:50;98992.59;;;-4.15;100.00
20987;BME280;10652;50.306;8.570;2023-02-28T03:45:02;98982.28;;;-4.17;100.00
20987;BME280;10652;50.306;8.570;2023-02-28T03:49:18;98981.44;;;-4.17;100.00
20987;BME280;10652;50.306;8.570;2023-02-28T03:53:36;98985.66;;;-4.19;100.00
20987;BME280;10652;50.306;8.570;2023-02-28T04:01:58;98982.97;;;-4.24;100.00
20987;BME280;10652;50.306;8.570;2023-02-28T04:06:01;98989.75;;;-4.26;100.00
20987;BME280;10652;50.306;8.570;2023-02-28T04:10:04;98981.06;;;-4.31;100.00
20987;BME280;10652;50.306;8.570;2023-02-28T04:14:07;98986.13;;;-4.34;100.00
20987;BME280;10652;50.306;8.570;2023-02-28T04:18:10;98988.63;;;-4.37;100.00
20987;BME280;10652;50.306;8.570;2023-02-28T04:22:12;98985.19;;;-4.38;100.00
20987;BME280;10652;50.306;8.570;2023-02-28T04:26:15;98981.69;;;-4.40;100.00
20987;BME280;10652;50.306;8.570;2023-02-28T04:30:17;98987.63;;;-4.42;100.00
20987;BME280;10652;50.306;8.570;2023-02-28T04:34:20;98989.25;;;-4.44;100.00
20987;BME280;10652;50.306;8.570;2023-02-28T04:38:23;98990.06;;;-4.45;100.00
20987;BME280;10652;50.306;8.570;2023-02-28T04:42:25;98990.88;;;-4.48;100.00
20987;BME280;10652;50.306;8.570;2023-02-28T04:46:27;98987.38;;;-4.51;100.00
20987;BME280;10652;50.306;8.570;2023-02-28T04:50:29;98982.25;;;-4.51;100.00
20987;BME280;10652;50.306;8.570;2023-02-28T04:54:31;98990.00;;;-4.48;100.00
20987;BME280;10652;50.306;8.570;2023-02-28T04:58:34;98991.00;;;-4.43;100.00
20987;BME280;10652;50.306;8.570;2023-02-28T05:02:36;98986.06;;;-4.37;100.00
20987;BME280;10652;50.306;8.570;2023-02-28T05:06:38;98997.31;;;-4.31;100.00
20987;BME280;10652;50.306;8.570;2023-02-28T05:10:40;98994.94;;;-4.25;100.00
20987;BME280;10652;50.306;8.570;2023-02-28T05:14:42;98998.03;;;-4.05;100.00
20987;BME280;10652;50.306;8.570;2023-02-28T05:18:46;98999.84;;;-3.99;100.00
20987;BME280;10652;50.306;8.570;2023-02-28T05:22:49;99010.06;;;-4.02;100.00
20987;BME280;10652;50.306;8.570;2023-02-28T05:26:53;99003.03;;;-4.09;99.86
20987;BME280;10652;50.306;8.570;2023-02-28T05:30:55;99007.19;;;-4.13;99.92
20987;BME280;10652;50.306;8.570;2023-02-28T05:34:57;99008.94;;;-4.12;99.85
20987;BME280;10652;50.306;8.570;2023-02-28T05:38:59;99010.69;;;-4.11;99.33
20987;BME280;10652;50.306;8.570;2023-02-28T05:43:01;99012.34;;;-4.13;99.17
20987;BME280;10652;50.306;8.570;2023-02-28T05:47:03;99015.75;;;-4.14;99.52
20987;BME280;10652;50.306;8.570;2023-02-28T05:51:06;99014.00;;;-4.15;99.39
20987;BME280;10652;50.306;8.570;2023-02-28T05:55:09;99009.69;;;-4.16;99.20
20987;BME280;10652;50.306;8.570;2023-02-28T05:59:12;99016.56;;;-4.15;99.04
20987;BME280;10652;50.306;8.570;2023-02-28T06:03:14;99019.09;;;-4.16;99.07
20987;BME280;10652;50.306;8.570;2023-02-28T06:07:17;99020.78;;;-4.17;98.55
20987;BME280;10652;50.306;8.570;2023-02-28T06:11:19;99025.09;;;-4.16;98.14
20987;BME280;10652;50.306;8.570;2023-02-28T06:15:22;99031.78;;;-4.21;98.31
20987;BME280;10652;50.306;8.570;2023-02-28T06:19:24;99018.72;;;-4.30;99.08
20987;BME280;10652;50.306;8.570;2023-02-28T06:23:29;99025.66;;;-4.26;99.52
20987;BME280;10652;50.306;8.570;2023-02-28T06:27:32;99025.75;;;-4.23;98.88
20987;BME280;10652;50.306;8.570;2023-02-28T06:31:35;99028.53;;;-4.15;98.87
20987;BME280;10652;50.306;8.570;2023-02-28T06:35:37;99023.56;;;-4.09;98.18
20987;BME280;10652;50.306;8.570;2023-02-28T06:39:40;99038.22;;;-4.05;98.05
20987;BME280;10652;50.306;8.570;2023-02-28T06:43:42;99027.19;;;-4.01;97.98
20987;BME280;10652;50.306;8.570;2023-02-28T06:47:44;99044.69;;;-3.52;99.87
20987;BME280;10652;50.306;8.570;2023-02-28T06:51:47;99045.47;;;-3.56;95.57
20987;BME280;10652;50.306;8.570;2023-02-28T06:55:49;99054.91;;;-3.55;93.39
20987;BME280;10652;50.306;8.570;2023-02-28T06:59:51;99044.75;;;-3.51;92.98
20987;BME280;10652;50.306;8.570;2023-02-28T07:03:54;99054.16;;;-3.51;92.18
20987;BME280;10652;50.306;8.570;2023-02-28T07:07:56;99062.84;;;-3.45;92.01
20987;BME280;10652;50.306;8.570;2023-02-28T07:11:58;99059.19;;;-3.20;92.07
20987;BME280;10652;50.306;8.570;2023-02-28T07:16:07;99051.66;;;-3.12;89.96
20987;BME280;10652;50.306;8.570;2023-02-28T07:20:11;99061.03;;;-3.14;89.79
20987;BME280;10652;50.306;8.570;2023-02-28T07:24:13;99056.00;;;-3.08;89.53
20987;BME280;10652;50.306;8.570;2023-02-28T07:28:17;99051.84;;;-3.03;88.22
20987;BME280;10652;50.306;8.570;2023-02-28T07:32:21;99049.38;;;-2.99;87.33
20987;BME280;10652;50.306;8.570;2023-02-28T07:36:23;99050.41;;;-2.91;86.74
20987;BME280;10652;50.306;8.570;2023-02-28T07:40:26;99055.84;;;-2.78;86.53
20987;BME280;10652;50.306;8.570;2023-02-28T07:44:28;99051.88;;;-2.64;85.83
20987;BME280;10652;50.306;8.570;2023-02-28T07:48:31;99048.00;;;-2.44;83.14
20987;BME280;10652;50.306;8.570;2023-02-28T07:52:33;99048.59;;;-2.15;80.88
20987;BME280;10652;50.306;8.570;2023-02-28T07:56:35;99053.22;;;-1.97;78.99
20987;BME280;10652;50.306;8.570;2023-02-28T08:00:37;99064.38;;;-1.95;76.50
20987;BME280;10652;50.306;8.570;2023-02-28T08:04:40;99071.28;;;-1.96;74.06
20987;BME280;10652;50.306;8.570;2023-02-28T08:08:42;99075.38;;;-2.06;71.55
20987;BME280;10652;50.306;8.570;2023-02-28T08:12:46;99065.97;;;-2.04;71.07
20987;BME280;10652;50.306;8.570;2023-02-28T08:16:48;99052.47;;;-1.92;70.94
20987;BME280;10652;50.306;8.570;2023-02-28T08:20:50;99056.78;;;-1.89;68.29
20987;BME280;10652;50.306;8.570;2023-02-28T08:24:52;99048.31;;;-1.84;68.95
20987;BME280;10652;50.306;8.570;2023-02-28T08:28:54;99064.69;;;-1.80;66.98
20987;BME280;10652;50.306;8.570;2023-02-28T08:32:58;99052.00;;;-1.68;66.38
20987;BME280;10652;50.306;8.570;2023-02-28T08:37:00;99055.66;;;-1.57;65.84
20987;BME280;10652;50.306;8.570;2023-02-28T08:41:07;99052.41;;;-1.45;64.19
20987;BME280;10652;50.306;8.570;2023-02-28T08:45:11;99050.94;;;-1.33;63.68
20987;BME280;10652;50.306;8.570;2023-02-28T08:49:13;99073.38;;;-1.26;61.55
20987;BME280;10652;50.306;8.570;2023-02-28T08:53:15;99055.34;;;-1.24;59.54
20987;BME280;10652;50.306;8.570;2023-02-28T08:57:17;99042.59;;;-1.15;59.21
20987;BME280;10652;50.306;8.570;2023-02-28T09:01:21;99058.19;;;-1.07;58.80
20987;BME280;10652;50.306;8.570;2023-02-28T09:05:24;99060.06;;;-0.97;58.35
20987;BME280;10652;50.306;8.570;2023-02-28T09:09:26;99058.50;;;-0.86;57.42
20987;BME280;10652;50.306;8.570;2023-02-28T09:13:28;99050.91;;;-0.76;57.12
20987;BME280;10652;50.306;8.570;2023-02-28T09:17:31;99058.09;;;-0.55;56.35
20987;BME280;10652;50.306;8.570;2023-02-28T09:21:33;99060.84;;;-0.40;54.41
20987;BME280;10652;50.306;8.570;2023-02-28T09:25:36;99051.50;;;-0.30;54.34
20987;BME280;10652;50.306;8.570;2023-02-28T09:29:38;99062.03;;;-0.15;53.55
20987;BME280;10652;50.306;8.570;2023-02-28T09:33:40;99068.19;;;-0.02;51.85
20987;BME280;10652;50.306;8.570;2023-02-28T09:37:43;99052.72;;;-0.02;51.89
20987;BME280;10652;50.306;8.570;2023-02-28T09:41:47;99062.41;;;0.17;51.21
20987;BME280;10652;50.306;8.570;2023-02-28T09:45:59;99054.72;;;0.28;49.52
20987;BME280;10652;50.306;8.570;2023-02-28T09:54:23;99044.50;;;0.38;50.03
20987;BME280;10652;50.306;8.570;2023-02-28T09:58:41;99052.19;;;0.32;49.82
20987;BME280;10652;50.306;8.570;2023-02-28T10:07:21;99046.81;;;0.11;49.66
20987;BME280;10652;50.306;8.570;2023-02-28T10:11:26;99054.53;;;0.08;49.48
20987;BME280;10652;50.306;8.570;2023-02-28T10:15:31;99051.44;;;0.41;50.07
20987;BME280;10652;50.306;8.570;2023-02-28T10:24:10;99041.34;;;0.73;49.06
20987;BME280;10652;50.306;8.570;2023-02-28T10:28:16;99054.97;;;0.49;47.52
20987;BME280;10652;50.306;8.570;2023-02-28T10:36:32;99054.94;;;0.50;48.72
20987;BME280;10652;50.306;8.570;2023-02-28T10:40:37;99063.75;;;0.71;47.66
20987;BME280;10652;50.306;8.570;2023-02-28T10:44:39;99053.63;;;0.95;48.46
20987;BME280;10652;50.306;8.570;2023-02-28T10:48:44;99046.84;;;1.15;47.84
20987;BME280;10652;50.306;8.570;2023-02-28T10:52:47;99045.25;;;1.41;46.37
20987;BME280;10652;50.306;8.570;2023-02-28T10:57:12;99039.22;;;1.41;46.40
20987;BME280;10652;50.306;8.570;2023-02-28T11:01:19;99052.16;;;1.38;46.38
20987;BME280;10652;50.306;8.570;2023-02-28T11:05:29;99043.44;;;1.24;46.79
20987;BME280;10652;50.306;8.570;2023-02-28T11:09:38;99047.75;;;1.20;46.60
20987;BME280;10652;50.306;8.570;2023-02-28T11:13:40;99039.84;;;0.99;46.79
20987;BME280;10652;50.306;8.570;2023-02-28T11:17:43;99035.63;;;1.16;47.06
20987;BME280;10652;50.306;8.570;2023-02-28T11:21:54;99045.91;;;1.05;46.63
20987;BME280;10652;50.306;8.570;2023-02-28T11:26:00;99035.75;;;1.34;46.93
20987;BME280;10652;50.306;8.570;2023-02-28T11:30:03;99026.47;;;1.88;45.62
20987;BME280;10652;50.306;8.570;2023-02-28T11:34:23;99021.41;;;2.39;46.34
20987;BME280;10652;50.306;8.570;2023-02-28T11:38:27;99012.78;;;2.71;44.39
20987;BME280;10652;50.306;8.570;2023-02-28T11:46:47;99030.06;;;2.75;43.98
20987;BME280;10652;50.306;8.570;2023-02-28T11:51:15;99011.91;;;2.51;44.13
20987;BME280;10652;50.306;8.570;2023-02-28T11:55:55;99014.47;;;2.20;44.17
20987;BME280;10652;50.306;8.570;2023-02-28T12:00:05;99019.56;;;1.88;45.00
20987;BME280;10652;50.306;8.570;2023-02-28T12:04:30;99004.84;;;1.74;45.55
20987;BME280;10652;50.306;8.570;2023-02-28T12:09:00;99027.31;;;1.78;45.41
20987;BME280;10652;50.306;8.570;2023-02-28T12:13:19;99034.16;;;1.64;45.24
20987;BME280;10652;50.306;8.570;2023-02-28T12:22:03;99008.34;;;1.89;45.50
20987;BME280;10652;50.306;8.570;2023-02-28T12:26:16;99015.25;;;1.86;44.98
20987;BME280;10652;50.306;8.570;2023-02-28T12:30:27;99014.41;;;2.00;45.48
20987;BME280;10652;50.306;8.570;2023-02-28T12:34:35;99022.16;;;1.91;45.72
20987;BME280;10652;50.306;8.570;2023-02-28T12:38:42;99024.63;;;1.53;45.89
20987;BME280;10652;50.306;8.570;2023-02-28T12:42:49;98999.63;;;1.62;46.64
20987;BME280;10652;50.306;8.570;2023-02-28T12:46:56;99018.66;;;1.71;45.83
20987;BME280;10652;50.306;8.570;2023-02-28T12:51:00;99016.13;;;2.00;46.55
20987;BME280;10652;50.306;8.570;2023-02-28T12:55:10;99014.38;;;1.81;46.28
20987;BME280;10652;50.306;8.570;2023-02-28T12:59:27;99012.66;;;1.77;45.90
20987;BME280;10652;50.306;8.570;2023-02-28T13:04:31;98994.53;;;1.84;46.04
20987;BME280;10652;50.306;8.570;2023-02-28T13:08:38;99010.09;;;1.90;46.08
20987;BME280;10652;50.306;8.570;2023-02-28T13:12:53;98994.50;;;1.77;46.68
20987;BME280;10652;50.306;8.570;2023-02-28T13:21:28;98991.94;;;1.81;46.33
20987;BME280;10652;50.306;8.570;2023-02-28T13:29:42;98987.66;;;1.94;46.60
20987;BME280;10652;50.306;8.570;2023-02-28T13:37:50;98986.84;;;2.31;45.96
20987;BME280;10652;50.306;8.570;2023-02-28T13:41:53;98985.97;;;2.43;45.59
20987;BME280;10652;50.306;8.570;2023-02-28T13:46:10;98975.59;;;2.38;46.26
20987;BME280;10652;50.306;8.570;2023-02-28T13:50:32;98988.56;;;2.26;46.19
20987;BME280;10652;50.306;8.570;2023-02-28T13:59:16;98974.75;;;2.21;47.15
20987;BME280;10652;50.306;8.570;2023-02-28T14:03:51;98972.13;;;2.14;47.41
20987;BME280;10652;50.306;8.570;2023-02-28T14:08:05;98966.06;;;2.19;48.27
20987;BME280;10652;50.306;8.570;2023-02-28T14:16:49;98961.75;;;2.18;47.35
20987;BME280;10652;50.306;8.570;2023-02-28T14:20:58;98967.81;;;2.32;47.04
20987;BME280;10652;50.306;8.570;2023-02-28T14:38:27;98953.13;;;2.04;48.41
20987;BME280;10652;50.306;8.570;2023-02-28T14:42:34;98950.53;;;2.07;47.79
20987;BME280;10652;50.306;8.570;2023-02-28T14:46:38;98969.53;;;2.12;47.64
20987;BME280;10652;50.306;8.570;2023-02-28T14:50:48;98964.34;;;2.18;47.61
20987;BME280;10652;50.306;8.570;2023-02-28T14:54:53;98949.66;;;2.20;46.96
20987;BME280;10652;50.306;8.570;2023-02-28T14:58:56;98958.34;;;2.40;46.90
20987;BME280;10652;50.306;8.570;2023-02-28T15:03:00;98955.75;;;2.22;47.11
20987;BME280;10652;50.306;8.570;2023-02-28T15:07:15;98954.00;;;2.30;47.16
20987;BME280;10652;50.306;8.570;2023-02-28T15:11:18;98954.00;;;2.33;46.61
20987;BME280;10652;50.306;8.570;2023-02-28T15:15:40;98954.88;;;2.26;46.95
20987;BME280;10652;50.306;8.570;2023-02-28T15:20:00;98954.84;;;2.13;47.09
20987;BME280;10652;50.306;8.570;2023-02-28T15:24:17;98943.59;;;2.18;47.46
20987;BME280;10652;50.306;8.570;2023-02-28T15:28:25;98948.78;;;2.09;47.31
20987;BME280;10652;50.306;8.570;2023-02-28T15:32:30;98951.38;;;2.04;47.06
20987;BME280;10652;50.306;8.570;2023-02-28T15:36:34;98944.47;;;2.00;47.48
20987;BME280;10652;50.306;8.570;2023-02-28T15:40:42;98953.94;;;1.92;47.53
20987;BME280;10652;50.306;8.570;2023-02-28T15:44:46;98943.59;;;1.85;47.85
20987;BME280;10652;50.306;8.570;2023-02-28T15:48:52;98947.06;;;1.90;48.31
20987;BME280;10652;50.306;8.570;2023-02-28T15:52:55;98949.63;;;1.88;48.55
20987;BME280;10652;50.306;8.570;2023-02-28T15:57:03;98948.72;;;1.73;48.38
20987;BME280;10652;50.306;8.570;2023-02-28T16:01:21;98944.41;;;1.72;48.97
20987;BME280;10652;50.306;8.570;2023-02-28T16:05:30;98940.94;;;1.70;48.90
20987;BME280;10652;50.306;8.570;2023-02-28T16:09:33;98952.16;;;1.66;49.69
20987;BME280;10652;50.306;8.570;2023-02-28T16:13:36;98959.06;;;1.57;49.45
20987;BME280;10652;50.306;8.570;2023-02-28T16:17:39;98956.44;;;1.48;49.37
20987;BME280;10652;50.306;8.570;2023-02-28T16:21:41;98946.94;;;1.44;49.33
20987;BME280;10652;50.306;8.570;2023-02-28T16:25:43;98954.63;;;1.34;49.77
20987;BME280;10652;50.306;8.570;2023-02-28T16:29:48;98960.66;;;1.28;49.92
20987;BME280;10652;50.306;8.570;2023-02-28T16:33:50;98967.50;;;1.17;50.05
20987;BME280;10652;50.306;8.570;2023-02-28T16:37:53;98965.72;;;1.07;50.30
20987;BME280;10652;50.306;8.570;2023-02-28T16:41:55;98969.97;;;0.96;50.65
20987;BME280;10652;50.306;8.570;2023-02-28T16:45:57;98980.28;;;0.88;50.51
20987;BME280;10652;50.306;8.570;2023-02-28T16:50:14;98984.53;;;0.80;50.74
20987;BME280;10652;50.306;8.570;2023-02-28T16:54:17;98983.63;;;0.72;50.87
20987;BME280;10652;50.306;8.570;2023-02-28T16:58:19;98993.03;;;0.62;50.93
20987;BME280;10652;50.306;8.570;2023-02-28T17:02:23;98998.13;;;0.53;51.25
20987;BME280;10652;50.306;8.570;2023-02-28T17:06:27;98994.63;;;0.45;51.30
20987;BME280;10652;50.306;8.570;2023-02-28T17:10:30;98997.13;;;0.36;51.61
20987;BME280;10652;50.306;8.570;2023-02-28T17:14:32;99004.81;;;0.30;52.36
20987;BME280;10652;50.306;8.570;2023-02-28T17:18:34;99007.38;;;0.29;52.64
20987;BME280;10652;50.306;8.570;2023-02-28T17:22:36;99005.59;;;0.23;53.47
20987;BME280;10652;50.306;8.570;2023-02-28T17:26:40;99014.09;;;0.08;53.86
20987;BME280;10652;50.306;8.570;2023-02-28T17:30:42;99007.97;;;-0.01;54.99
20987;BME280;10652;50.306;8.570;2023-02-28T17:34:49;99019.06;;;-0.10;55.03
20987;BME280;10652;50.306;8.570;2023-02-28T17:38:52;99027.56;;;-0.18;55.37
20987;BME280;10652;50.306;8.570;2023-02-28T17:42:55;99031.81;;;-0.24;55.60
20987;BME280;10652;50.306;8.570;2023-02-28T17:46:58;99036.06;;;-0.27;56.50
20987;BME280;10652;50.306;8.570;2023-02-28T17:51:00;99039.47;;;-0.30;56.64
20987;BME280;10652;50.306;8.570;2023-02-28T17:55:03;99046.25;;;-0.36;56.50
20987;BME280;10652;50.306;8.570;2023-02-28T17:59:08;99053.00;;;-0.49;56.61
20987;BME280;10652;50.306;8.570;2023-02-28T18:03:11;99049.47;;;-0.55;57.30
20987;BME280;10652;50.306;8.570;2023-02-28T18:07:15;99057.09;;;-0.63;57.69
20987;BME280;10652;50.306;8.570;2023-02-28T18:11:18;99050.16;;;-0.67;57.60
20987;BME280;10652;50.306;8.570;2023-02-28T18:15:21;99046.66;;;-0.72;57.86
20987;BME280;10652;50.306;8.570;2023-02-28T18:19:23;99049.19;;;-0.77;58.37
20987;BME280;10652;50.306;8.570;2023-02-28T18:23:25;99052.53;;;-0.84;58.65
20987;BME280;10652;50.306;8.570;2023-02-28T18:27:27;99054.19;;;-0.87;58.98
20987;BME280;10652;50.306;8.570;2023-02-28T18:31:30;99061.00;;;-0.92;58.98
20987;BME280;10652;50.306;8.570;2023-02-28T18:35:33;99060.06;;;-0.97;59.15
20987;BME280;10652;50.306;8.570;2023-02-28T18:39:36;99054.84;;;-1.02;59.42
20987;BME280;10652;50.306;8.570;2023-02-28T18:43:38;99053.03;;;-1.07;59.87
20987;BME280;10652;50.306;8.570;2023-02-28T18:47:40;99044.34;;;-1.13;60.28
20987;BME280;10652;50.306;8.570;2023-02-28T18:51:42;99046.00;;;-1.18;60.26
20987;BME280;10652;50.306;8.570;2023-02-28T18:55:46;99048.53;;;-1.21;60.73
20987;BME280;10652;50.306;8.570;2023-02-28T18:59:48;99049.38;;;-1.22;60.91
20987;BME280;10652;50.306;8.570;2023-02-28T19:03:50;99052.69;;;-1.29;61.06
20987;BME280;10652;50.306;8.570;2023-02-28T19:07:52;99050.84;;;-1.36;61.55
20987;BME280;10652;50.306;8.570;2023-02-28T19:11:54;99048.22;;;-1.39;62.12
20987;BME280;10652;50.306;8.570;2023-02-28T19:16:00;99048.16;;;-1.43;62.25
20987;BME280;10652;50.306;8.570;2023-02-28T19:20:04;99058.44;;;-1.45;62.90
20987;BME280;10652;50.306;8.570;2023-02-28T19:24:06;99044.59;;;-1.51;62.75
20987;BME280;10652;50.306;8.570;2023-02-28T19:28:08;99050.50;;;-1.57;63.58
20987;BME280;10652;50.306;8.570;2023-02-28T19:32:10;99059.88;;;-1.62;63.58
20987;BME280;10652;50.306;8.570;2023-02-28T19:36:13;99055.53;;;-1.65;64.08
20987;BME280;10652;50.306;8.570;2023-02-28T19:40:15;99052.09;;;-1.65;64.05
20987;BME280;10652;50.306;8.570;2023-02-28T19:44:18;99055.34;;;-1.75;64.75
20987;BME280;10652;50.306;8.570;2023-02-28T19:48:20;99056.13;;;-1.79;65.24
20987;BME280;10652;50.306;8.570;2023-02-28T19:52:26;99059.44;;;-1.85;65.58
20987;BME280;10652;50.306;8.570;2023-02-28T19:56:28;99073.06;;;-1.90;66.19
20987;BME280;10652;50.306;8.570;2023-02-28T20:00:30;99063.56;;;-1.94;66.85
20987;BME280;10652;50.306;8.570;2023-02-28T20:04:32;99061.78;;;-1.98;67.23
20987;BME280;10652;50.306;8.570;2023-02-28T20:08:35;99062.59;;;-2.00;67.23
20987;BME280;10652;50.306;8.570;2023-02-28T20:12:37;99068.53;;;-2.04;67.36
20987;BME280;10652;50.306;8.570;2023-02-28T20:16:40;99056.44;;;-2.08;67.70
20987;BME280;10652;50.306;8.570;2023-02-28T20:20:42;99063.34;;;-2.07;67.81
20987;BME280;10652;50.306;8.570;2023-02-28T20:24:46;99062.56;;;-2.03;68.00
20987;BME280;10652;50.306;8.570;2023-02-28T20:28:48;99052.31;;;-2.00;67.83
20987;BME280;10652;50.306;8.570;2023-02-28T20:32:51;99048.88;;;-2.00;68.72
20987;BME280;10652;50.306;8.570;2023-02-28T20:36:53;99048.91;;;-1.98;68.77
20987;BME280;10652;50.306;8.570;2023-02-28T20:40:58;99048.09;;;-1.96;68.27
20987;BME280;10652;50.306;8.570;2023-02-28T20:45:00;99052.34;;;-1.98;67.93
20987;BME280;10652;50.306;8.570;2023-02-28T20:49:02;99051.53;;;-1.95;67.90
20987;BME280;10652;50.306;8.570;2023-02-28T20:53:04;99053.09;;;-2.04;67.55
20987;BME280;10652;50.306;8.570;2023-02-28T20:57:06;99058.22;;;-2.05;67.98
20987;BME280;10652;50.306;8.570;2023-02-28T21:01:17;99059.94;;;-2.06;68.07
20987;BME280;10652;50.306;8.570;2023-02-28T21:05:19;99046.31;;;-2.00;69.32
20987;BME280;10652;50.306;8.570;2023-02-28T21:09:22;99043.03;;;-1.91;69.61
20987;BME280;10652;50.306;8.570;2023-02-28T21:13:24;99038.69;;;-1.94;68.76
20987;BME280;10652;50.306;8.570;2023-02-28T21:17:28;99038.63;;;-1.97;69.12
20987;BME280;10652;50.306;8.570;2023-02-28T21:21:38;99030.91;;;-1.95;69.25
20987;BME280;10652;50.306;8.570;2023-02-28T21:25:43;99042.16;;;-1.92;69.25
20987;BME280;10652;50.306;8.570;2023-02-28T21:29:45;99048.19;;;-1.91;68.89
20987;BME280;10652;50.306;8.570;2023-02-28T21:33:48;99041.34;;;-1.89;68.65
20987;BME280;10652;50.306;8.570;2023-02-28T21:37:51;99047.25;;;-1.95;67.99
20987;BME280;10652;50.306;8.570;2023-02-28T21:41:53;99054.75;;;-2.07;68.46
20987;BME280;10652;50.306;8.570;2023-02-28T21:45:55;99046.97;;;-2.10;68.75
20987;BME280;10652;50.306;8.570;2023-02-28T21:49:57;99048.72;;;-2.09;69.74
20987;BME280;10652;50.306;8.570;2023-02-28T21:54:00;99044.41;;;-2.10;68.91
20987;BME280;10652;50.306;8.570;2023-02-28T21:58:02;99040.91;;;-2.14;69.22
20987;BME280;10652;50.306;8.570;2023-02-28T22:02:05;99054.53;;;-2.18;69.17
20987;BME280;10652;50.306;8.570;2023-02-28T22:06:15;99054.34;;;-2.27;69.63
20987;BME280;10652;50.306;8.570;2023-02-28T22:10:17;99060.31;;;-2.29;69.83
20987;BME280;10652;50.306;8.570;2023-02-28T22:14:19;99055.91;;;-2.35;69.20
20987;BME280;10652;50.306;8.570;2023-02-28T22:18:21;99060.06;;;-2.41;69.98
20987;BME280;10652;50.306;8.570;2023-02-28T22:22:23;99061.69;;;-2.45;70.08
20987;BME280;10652;50.306;8.570;2023-02-28T22:26:26;99061.69;;;-2.47;70.61
20987;BME280;10652;50.306;8.570;2023-02-28T22:30:29;99067.75;;;-2.43;71.21
20987;BME280;10652;50.306;8.570;2023-02-28T22:34:32;99061.78;;;-2.42;70.83
20987;BME280;10652;50.306;8.570;2023-02-28T22:38:34;99061.84;;;-2.39;71.03
20987;BME280;10652;50.306;8.570;2023-02-28T22:42:36;99059.28;;;-2.37;71.23
20987;BME280;10652;50.306;8.570;2023-02-28T22:46:38;99061.97;;;-2.31;70.95
20987;BME280;10652;50.306;8.570;2023-02-28T22:50:41;99069.72;;;-2.30;71.28
20987;BME280;10652;50.306;8.570;2023-02-28T22:54:43;99069.72;;;-2.30;70.93
20987;BME280;10652;50.306;8.570;2023-02-28T22:58:50;99074.00;;;-2.30;71.08
20987;BME280;10652;50.306;8.570;2023-02-28T23:02:52;99073.09;;;-2.34;70.71
20987;BME280;10652;50.306;8.570;2023-02-28T23:06:54;99074.69;;;-2.39;70.88